South Elgin, Illinois
Current Conditions -  °F | °C
As of 2:52 AM on Monday 20 Oct 2014 (Local Time) from KDPA Reporting Station
Clear Clear  
Wind Chill: 43°   Ceiling: Unl
Heat Index: 47°   Visibility: 10mi
Dew Point: 43°   Wind: 8mph
Humidity: 86%   Direction: 180°S
Pressure: 29.84"   Gusts: NA
Location:  41.99°N, 88.29°W
Report Text: KDPA 200752Z 18007KT 10SM CLR 08/06 A2984 RMK AO2 SLP107 T00830061
Loading
Personal Weather Stations






























Interactive Weather Map
Tropical Storm Tracking
New forecast layout! Learn more

10-Day Weather Forecast

Advertisements
Track Severe Weather on mobile